Time;durP1;ratioP1;P1;durP2;ratioP2;P2;SDS_P1;SDS_P2;PMS_P1;PMS_P2;Temp;Humidity;BMP_temperature;BMP_pressure;BME280_temperature;BME280_humidity;BME280_pressure;Samples;Min_cycle;Max_cycle;Signal;HPM_P1;HPM_P2
2022/06/23 02:23:29;;;;;;;;;;;;;;;;;;;;;
2022/06/23 02:33:45;;;;;;;9.97;2.50;;;;;;;24.92;54.03;98452.75;4747904;30;20252;-94
2022/06/23 02:39:54;;;;;;;6.00;2.87;;;;;;;24.98;53.36;98469.94;4817347;29;20254;-93
2022/06/23 02:42:40;;;;;;;6.27;3.00;;;;;;;24.92;53.27;98468.84;4813584;29;20232;-92
2022/06/23 02:45:30;;;;;;;5.77;2.50;;;;;;;24.88;52.28;98467.56;4825986;29;20197;-92
2022/06/23 02:48:26;;;;;;;4.97;2.30;;;;;;;24.92;52.36;98466.16;4811224;29;20185;-92
2022/06/23 02:51:42;;;;;;;;;;;;;;;;;;;;;
2022/06/23 02:54:17;;;;;;;8.97;2.33;;;;;;;24.92;51.76;98479.56;4814966;29;20212;-92
2022/06/23 02:56:57;;;;;;;5.47;2.17;;;;;;;24.93;51.12;98485.75;4811411;29;20739;-93
2022/06/23 02:59:46;;;;;;;6.23;3.00;;;;;;;25.11;50.11;98475.47;4811840;29;20178;-92
2022/06/23 03:02:30;;;;;;;;;;;;;;;;;;;;;
2022/06/23 03:05:28;;;;;;;;;;;;;;;;;;;;;
2022/06/23 03:17:45;;;;;;;5.30;2.20;;;;;;;25.20;49.93;98477.03;4826512;29;20346;-93
2022/06/23 03:21:14;;;;;;;;;;;;;;;;;;;;;
2022/06/23 03:35:49;;;;;;;;;;;;;;;;;;;;;
2022/06/23 09:24:24;;;;;;;2.00;1.20;;;;;;;27.36;53.25;98780.13;6126768;23;20284;-91
2022/06/23 09:27:05;;;;;;;7.60;1.45;;;;;;;27.20;54.84;98715.00;6131273;23;20227;-91
2022/06/23 09:29:47;;;;;;;3.63;1.33;;;;;;;26.83;57.64;98725.03;6131095;23;20167;-91
2022/06/23 09:32:49;;;;;;;2.88;1.40;;;;;;;26.73;58.28;98746.03;6156816;23;20143;-89
2022/06/23 09:35:57;;;;;;;9.20;2.22;;;;;;;26.65;59.80;98731.91;6156108;23;20143;-89
2022/06/23 09:38:23;;;;;;;5.70;1.75;;;;;;;26.34;61.26;98712.53;6156812;23;20139;-88
2022/06/23 09:41:21;;;;;;;3.03;1.55;;;;;;;26.33;61.54;98737.75;6156644;23;20583;-88
2022/06/23 09:44:01;;;;;;;3.88;1.40;;;;;;;26.32;62.59;98773.72;6156905;23;20242;-88
2022/06/23 09:46:58;;;;;;;4.00;1.85;;;;;;;26.21;62.29;98772.34;6157127;23;20145;-89
2022/06/23 09:50:22;;;;;;;6.82;1.63;;;;;;;26.10;62.81;98760.19;6143096;23;20163;-89
2022/06/23 09:53:13;;;;;;;6.00;1.50;;;;;;;25.93;62.53;98742.63;6038843;23;20162;-90
2022/06/23 09:56:00;;;;;;;2.83;1.50;;;;;;;25.75;61.94;98720.72;6126986;23;20155;-91
2022/06/23 09:58:38;;;;;;;3.00;1.67;;;;;;;25.54;65.24;98632.06;6128998;23;20154;-89
2022/06/23 10:01:22;;;;;;;2.45;1.20;;;;;;;25.50;64.31;98612.81;6131123;23;20147;-90
2022/06/23 10:03:52;;;;;;;3.58;1.70;;;;;;;25.56;62.61;98646.13;6130996;23;20183;-91
2022/06/23 10:06:31;;;;;;;7.05;2.10;;;;;;;25.45;64.18;98660.81;6157228;23;20135;-92
2022/06/23 10:09:06;;;;;;;4.97;2.00;;;;;;;25.49;64.39;98680.09;6157910;23;20509;-91
2022/06/23 10:12:08;;;;;;;5.40;1.73;;;;;;;25.55;64.50;98684.72;6131130;23;20154;-90
2022/06/23 10:15:19;;;;;;;;;;;;;;;;;;;;;
2022/06/23 10:18:59;;;;;;;;;;;;;;;;;;;;;
2022/06/23 10:36:04;;;;;;;;;;;;;;;;;;;;;
2022/06/23 10:47:09;;;;;;;;;;;;;;;;;;;;;
2022/06/23 14:28:57;;;;;;;;;;;;;;;;;;;;;
2022/06/23 14:32:51;;;;;;;3.70;1.85;;;;;;;29.61;42.97;98634.84;6096213;23;20298;-91
2022/06/23 14:49:44;;;;;;;;;;;;;;;;;;;;;
2022/06/23 15:03:28;;;;;;;;;;;;;;;;;;;;;
2022/06/23 15:06:10;;;;;;;5.55;1.65;;;;;;;29.47;43.89;98620.56;5909615;24;20164;-90
2022/06/23 15:08:44;;;;;;;4.00;1.85;;;;;;;29.50;44.61;98614.72;5927955;24;20163;-91
2022/06/23 15:11:59;;;;;;;7.82;2.13;;;;;;;29.28;44.80;98616.03;5982268;24;20230;-91
2022/06/23 15:42:08;;;;;;;;;;;;;;;;;;;;;
2022/06/23 15:45:25;;;;;;;;;;;;;;;;;;;;;
2022/06/23 16:06:14;;;;;;;;;;;;;;;;;;;;;
2022/06/23 16:17:09;;;;;;;;;;;;;;;;;;;;;
2022/06/23 16:31:12;;;;;;;;;;;;;;;;;;;;;
2022/06/23 16:49:17;;;;;;;;;;;;;;;;;;;;;
2022/06/23 17:10:36;;;;;;;;;;;;;;;;;;;;;
2022/06/23 17:13:58;;;;;;;;;;;;;;;;;;;;;
2022/06/23 17:20:36;;;;;;;;;;;;;;;;;;;;;
2022/06/23 17:31:40;;;;;;;;;;;;;;;;;;;;;
2022/06/23 17:34:59;;;;;;;3.42;1.52;;;;;;;28.13;46.78;98656.06;5983594;24;20535;-91
2022/06/23 17:43:45;;;;;;;3.80;1.90;;;;;;;28.11;47.33;98663.53;5945753;24;20186;-90
2022/06/23 17:44:20;;;;;;;;;;;;;;;;;;;;;
2022/06/23 17:51:11;;;;;;;;;;;;;;;;;;;;;
2022/06/23 17:55:22;;;;;;;4.20;1.65;;;;;;;27.84;46.31;98691.38;6025183;23;20231;-91
2022/06/23 17:58:14;;;;;;;;;;;;;;;;;;;;;
2022/06/23 18:04:45;;;;;;;2.60;1.30;;;;;;;27.68;45.24;98697.09;5971147;23;20690;-91
2022/06/23 18:07:32;;;;;;;1.77;1.00;;;;;;;27.60;45.12;98702.63;6078957;23;20182;-90
2022/06/23 18:10:22;;;;;;;2.75;1.17;;;;;;;27.55;44.92;98703.25;6074659;23;20159;-89
2022/06/23 18:12:59;;;;;;;2.47;1.13;;;;;;;27.53;44.34;98718.78;6127807;23;20132;-90
2022/06/23 18:16:10;;;;;;;1.98;0.88;;;;;;;27.48;44.30;98723.09;6126262;23;20599;-90
2022/06/23 18:19:12;;;;;;;;;;;;;;;;;;;;;
2022/06/23 18:21:38;;;;;;;2.55;0.80;;;;;;;27.38;44.91;98732.31;6122213;23;20230;-90
2022/06/23 18:25:10;;;;;;;2.15;0.90;;;;;;;27.31;44.67;98741.38;6126197;23;20198;-90
2022/06/23 18:28:20;;;;;;;;;;;;;;;;;;;;;
2022/06/23 18:31:05;;;;;;;1.58;0.98;;;;;;;27.32;44.54;98754.66;6122392;23;20532;-91
2022/06/23 18:33:59;;;;;;;2.35;1.00;;;;;;;27.26;45.11;98758.09;6101870;23;20175;-93
2022/06/23 18:36:40;;;;;;;2.03;0.98;;;;;;;27.18;45.64;98754.72;6101887;23;20148;-91
2022/06/23 18:39:31;;;;;;;3.90;0.88;;;;;;;27.17;45.21;98762.00;6128100;23;20135;-92
2022/06/23 18:42:35;;;;;;;1.85;0.82;;;;;;;27.20;45.49;98763.47;6101824;23;20148;-92
2022/06/23 18:45:26;;;;;;;2.53;1.30;;;;;;;27.16;45.27;98768.38;6101944;23;20183;-90
2022/06/23 18:58:09;;;;;;;8.18;1.10;;;;;;;26.94;46.33;98795.50;6009483;23;20176;-92
2022/06/23 19:01:51;;;;;;;;;;;;;;;;;;;;;
2022/06/23 19:04:55;;;;;;;2.13;0.90;;;;;;;26.91;45.52;98802.13;5976198;24;20602;-94
2022/06/23 19:11:33;;;;;;;4.22;1.00;;;;;;;26.80;45.71;98821.44;6077932;23;20576;-93
2022/06/23 19:14:33;;;;;;;;;;;;;;;;;;;;;
2022/06/23 19:17:25;;;;;;;1.27;0.70;;;;;;;26.68;45.49;98818.38;6127441;23;20227;-92
2022/06/23 19:20:11;;;;;;;3.75;1.10;;;;;;;26.63;45.62;98820.81;6101846;23;20162;-93
2022/06/23 19:22:53;;;;;;;2.80;1.20;;;;;;;26.59;45.59;98813.31;6101359;23;20591;-92
2022/06/23 19:25:47;;;;;;;4.72;1.20;;;;;;;26.62;45.36;98823.69;6105739;23;20633;-93
2022/06/23 19:28:46;;;;;;;2.90;0.90;;;;;;;26.57;45.55;98818.06;6130209;23;20572;-94
2022/06/23 19:31:34;;;;;;;3.75;1.25;;;;;;;26.56;45.66;98829.81;6130956;23;20143;-93
2022/06/23 19:34:32;;;;;;;2.88;0.70;;;;;;;26.52;46.24;98832.03;6130738;23;20626;-92
2022/06/23 19:37:32;;;;;;;3.20;1.20;;;;;;;26.49;46.37;98826.22;6134705;23;20187;-93
2022/06/23 19:40:16;;;;;;;3.67;0.90;;;;;;;26.46;46.53;98830.13;6075023;23;20158;-92
2022/06/23 19:43:25;;;;;;;4.63;1.48;;;;;;;26.37;46.39;98825.03;6130405;23;20579;-93
2022/06/23 19:46:19;;;;;;;5.20;1.63;;;;;;;26.32;46.46;98822.09;6106119;23;20266;-93
2022/06/23 19:49:04;;;;;;;2.87;1.30;;;;;;;26.31;46.74;98831.19;6130478;23;20159;-93
2022/06/23 19:51:39;;;;;;;3.03;1.00;;;;;;;26.33;46.53;98826.44;6107940;23;20151;-93
2022/06/23 19:54:29;;;;;;;1.90;0.95;;;;;;;26.29;46.10;98834.03;6122013;23;20224;-92
2022/06/23 19:57:34;;;;;;;3.67;1.13;;;;;;;26.24;46.20;98831.09;6130587;23;20162;-93
2022/06/23 20:00:50;;;;;;;3.17;0.73;;;;;;;26.27;46.52;98825.34;6156885;23;20191;-93
2022/06/23 20:03:48;;;;;;;2.13;1.17;;;;;;;26.19;46.76;98825.44;6130751;23;20147;-92
2022/06/23 20:07:03;;;;;;;;;;;;;;;;;;;;;
2022/06/23 20:10:00;;;;;;;2.60;1.40;;;;;;;26.10;46.93;98835.41;6092167;23;20246;-92
2022/06/23 20:12:41;;;;;;;1.97;0.87;;;;;;;26.05;47.24;98835.13;6131440;23;20226;-92
2022/06/23 20:15:19;;;;;;;1.43;0.80;;;;;;;25.99;47.10;98825.16;6130493;23;20155;-93
2022/06/23 20:18:02;;;;;;;2.27;0.90;;;;;;;25.98;47.34;98836.91;6130860;23;20146;-93
2022/06/23 20:21:04;;;;;;;;;;;;;;;;;;;;;
2022/06/23 20:24:15;;;;;;;;;;;;;;;;;;;;;
2022/06/23 20:27:09;;;;;;;;;;;;;;;;;;;;;
2022/06/23 20:30:22;;;;;;;3.13;1.45;;;;;;;25.72;48.46;98825.78;6156733;23;20223;-93
2022/06/23 20:33:30;;;;;;;4.50;1.20;;;;;;;25.48;48.88;98826.03;6129430;23;20710;-92
2022/06/23 20:36:47;;;;;;;4.60;1.20;;;;;;;25.42;49.14;98824.88;6110019;23;20165;-92
2022/06/23 20:40:04;;;;;;;;;;;;;;;;;;;;;
2022/06/23 20:42:53;;;;;;;3.07;0.90;;;;;;;25.03;51.46;98819.69;6154972;23;20532;-92
2022/06/23 20:45:57;;;;;;;3.07;1.30;;;;;;;25.01;51.76;98819.03;6129643;23;20183;-93
2022/06/23 20:49:00;;;;;;;2.40;1.10;;;;;;;24.82;52.10;98821.34;6129604;23;20226;-93
2022/06/23 20:52:12;;;;;;;2.77;1.20;;;;;;;24.68;52.38;98833.66;6130286;23;20514;-94
2022/06/23 20:55:06;;;;;;;5.07;2.30;;;;;;;24.51;52.68;98829.41;6130232;23;20147;-92
2022/06/23 20:58:05;;;;;;;3.30;1.10;;;;;;;24.39;53.48;98828.13;6130363;23;20182;-94
2022/06/23 21:01:08;;;;;;;;;;;;;;;;;;;;;
2022/06/23 21:04:04;;;;;;;3.23;0.83;;;;;;;24.12;53.78;98828.59;6138319;23;20658;-92
2022/06/23 21:07:04;;;;;;;2.53;1.13;;;;;;;24.05;54.41;98832.94;6130133;23;20233;-91
2022/06/23 21:13:16;;;;;;;2.83;1.20;;;;;;;23.90;53.97;98829.31;6087839;23;20158;-92
2022/06/23 21:19:46;;;;;;;;;;;;;;;;;;;;;
2022/06/23 21:26:50;;;;;;;;;;;;;;;;;;;;;
2022/06/23 21:29:47;;;;;;;2.43;1.03;;;;;;;23.63;55.13;98823.38;6011612;23;20249;-93
2022/06/23 21:42:45;;;;;;;;;;;;;;;;;;;;;
2022/06/23 21:45:48;;;;;;;;;;;;;;;;;;;;;
2022/06/23 21:49:18;;;;;;;;;;;;;;;;;;;;;
2022/06/23 21:56:00;;;;;;;;;;;;;;;;;;;;;
2022/06/23 21:58:34;;;;;;;;;;;;;;;;;;;;;
2022/06/23 22:08:52;;;;;;;;;;;;;;;;;;;;;
2022/06/23 22:12:33;;;;;;;3.20;1.60;;;;;;;22.76;59.40;98820.50;6039602;23;20213;-93
2022/06/23 22:15:30;;;;;;;8.93;1.00;;;;;;;22.66;59.84;98821.66;5945819;24;20258;-91
2022/06/23 22:22:23;;;;;;;;;;;;;;;;;;;;;
2022/06/23 22:32:46;;;;;;;;;;;;;;;;;;;;;
2022/06/23 22:36:14;;;;;;;;;;;;;;;;;;;;;
2022/06/23 22:46:12;;;;;;;;;;;;;;;;;;;;;
2022/06/23 22:52:17;;;;;;;;;;;;;;;;;;;;;
2022/06/23 22:55:15;;;;;;;2.47;1.10;;;;;;;21.66;63.81;98803.72;5982649;24;20623;-93
2022/06/23 22:59:50;;;;;;;;;;;;;;;;;;;;;
2022/06/23 23:13:25;;;;;;;;;;;;;;;;;;;;;
2022/06/23 23:27:55;;;;;;;;;;;;;;;;;;;;;
